Time;durP1;ratioP1;P1;durP2;ratioP2;P2;SDS_P1;SDS_P2;PMS_P1;PMS_P2;Temp;Humidity;BMP_temperature;BMP_pressure;BME280_temperature;BME280_humidity;BME280_pressure;Samples;Min_cycle;Max_cycle;Signal;HPM_P1;HPM_P2
2022/11/22 00:00:10;;;;;;;1.60;1.20;;;;;;;9.08;59.08;99095.34;3143758;28;20490;-76
2022/11/22 00:01:41;;;;;;;3.08;1.50;;;;;;;9.10;59.30;99100.44;3144363;28;20201;-77
2022/11/22 00:03:12;;;;;;;1.70;1.20;;;;;;;9.11;59.01;99102.16;3144663;28;20058;-77
2022/11/22 00:04:44;;;;;;;1.67;1.20;;;;;;;9.10;59.47;99105.66;3143775;28;20057;-77
2022/11/22 00:06:16;;;;;;;2.42;1.33;;;;;;;9.02;59.38;99095.66;3144199;28;20056;-77
2022/11/22 00:07:47;;;;;;;2.40;1.55;;;;;;;9.10;59.46;99105.66;3144463;28;20532;-77
2022/11/22 00:09:19;;;;;;;1.88;1.38;;;;;;;9.07;59.04;99096.25;3144574;28;20056;-77
2022/11/22 00:10:51;;;;;;;2.08;1.33;;;;;;;9.09;59.12;99103.97;3140649;28;20541;-76
2022/11/22 00:12:23;;;;;;;2.50;1.40;;;;;;;9.05;59.25;99099.84;3144021;28;20052;-77
2022/11/22 00:13:56;;;;;;;2.65;1.55;;;;;;;9.02;59.38;99093.06;3144482;28;20044;-77
2022/11/22 00:15:28;;;;;;;1.90;1.30;;;;;;;8.97;59.56;99087.25;3144386;28;20480;-78
2022/11/22 00:17:00;;;;;;;2.30;1.50;;;;;;;8.96;59.46;99093.38;3143826;28;20101;-77
2022/11/22 00:18:32;;;;;;;2.70;1.45;;;;;;;8.93;59.42;99095.25;3144483;28;20082;-75
2022/11/22 00:20:04;;;;;;;1.90;1.63;;;;;;;8.71;59.76;99067.75;3143863;28;20072;-77
2022/11/22 00:21:36;;;;;;;4.30;1.80;;;;;;;8.89;59.61;99100.59;3144502;28;20531;-76
2022/11/22 00:23:08;;;;;;;2.13;1.50;;;;;;;8.87;59.84;99105.06;3143956;28;20544;-76
2022/11/22 00:24:40;;;;;;;1.90;1.33;;;;;;;8.85;59.66;99103.44;3143895;28;20110;-76
2022/11/22 00:26:12;;;;;;;2.42;1.50;;;;;;;8.82;59.96;99104.44;3143870;28;20056;-76
2022/11/22 00:27:45;;;;;;;4.00;1.73;;;;;;;8.83;60.14;99098.31;3144157;28;20094;-76
2022/11/22 00:29:18;;;;;;;2.45;1.60;;;;;;;8.80;60.27;99100.22;3143876;28;20097;-76
2022/11/22 00:30:51;;;;;;;;;;;;;;;8.71;60.16;99105.88;3144259;28;20535;-76
2022/11/22 00:32:23;;;;;;;2.20;1.23;;;;;;;8.68;60.41;99096.47;3143952;28;19921;-76
2022/11/22 00:33:55;;;;;;;2.40;1.73;;;;;;;8.68;60.09;99106.84;3144347;28;20091;-75
2022/11/22 00:35:27;;;;;;;2.60;1.73;;;;;;;8.68;60.29;99099.06;3144098;28;20060;-76
2022/11/22 00:36:59;;;;;;;2.35;1.58;;;;;;;8.68;60.39;99101.66;3144038;28;20052;-76
2022/11/22 00:38:30;;;;;;;2.55;1.70;;;;;;;8.65;60.19;99102.66;3143927;28;20480;-76
2022/11/22 00:40:02;;;;;;;2.17;1.58;;;;;;;8.55;60.04;99085.84;3144122;28;20055;-76
2022/11/22 00:41:34;;;;;;;2.05;1.65;;;;;;;8.63;60.08;99107.06;3144352;28;20056;-76
2022/11/22 00:43:06;;;;;;;2.35;1.63;;;;;;;8.60;60.04;99107.22;3143868;28;20098;-75
2022/11/22 00:44:39;;;;;;;2.20;1.40;;;;;;;8.60;60.07;99114.16;3144329;28;20044;-76
2022/11/22 00:46:11;;;;;;;2.38;1.40;;;;;;;8.55;59.95;99113.56;3143919;28;20056;-76
2022/11/22 00:47:43;;;;;;;2.85;1.70;;;;;;;8.55;59.99;99113.56;3144121;28;20052;-75
2022/11/22 00:49:15;;;;;;;3.13;1.90;;;;;;;8.56;59.90;99123.00;3144044;28;20048;-76
2022/11/22 00:50:49;;;;;;;2.42;1.60;;;;;;;8.54;59.81;99119.66;3143744;28;20088;-76
2022/11/22 00:52:20;;;;;;;2.05;1.25;;;;;;;8.52;59.58;99124.91;3144039;28;20072;-76
2022/11/22 00:53:51;;;;;;;1.92;1.40;;;;;;;8.51;59.90;99114.59;3143555;28;20052;-76
2022/11/22 00:55:23;;;;;;;2.55;1.65;;;;;;;8.55;59.34;99116.16;3144029;28;20585;-76
2022/11/22 00:56:55;;;;;;;2.28;1.65;;;;;;;8.51;59.77;99118.03;3143377;28;20045;-76
2022/11/22 00:58:27;;;;;;;3.03;1.67;;;;;;;8.45;59.57;99104.50;3143521;28;20041;-75
2022/11/22 01:00:00;;;;;;;2.55;1.63;;;;;;;8.51;59.58;99118.03;3143746;28;20045;-75
2022/11/22 01:01:32;;;;;;;3.38;1.83;;;;;;;8.50;59.49;99116.38;3144308;28;20056;-76
2022/11/22 01:03:04;;;;;;;2.17;1.70;;;;;;;8.46;59.49;99117.44;3143522;28;20523;-76
2022/11/22 01:04:36;;;;;;;2.30;1.70;;;;;;;8.46;59.60;99119.16;3143812;28;20064;-76
2022/11/22 01:06:08;;;;;;;2.45;1.85;;;;;;;8.41;59.80;99114.22;3143570;28;20087;-76
2022/11/22 01:07:40;;;;;;;2.45;1.77;;;;;;;8.43;59.70;99118.41;3143809;28;20448;-76
2022/11/22 01:09:18;;;;;;;1.80;1.42;;;;;;;8.45;59.89;99120.09;3143110;28;20060;-75
2022/11/22 01:10:55;;;;;;;2.22;1.60;;;;;;;8.16;59.83;99076.44;3143745;28;20098;-76
2022/11/22 01:12:27;;;;;;;3.53;2.05;;;;;;;8.39;59.89;99118.63;3143016;28;20131;-76
2022/11/22 01:13:59;;;;;;;2.97;2.05;;;;;;;8.41;59.96;99127.19;3143717;28;20048;-76
2022/11/22 01:15:33;;;;;;;3.65;1.98;;;;;;;8.40;59.88;99121.16;3143574;28;20124;-75
2022/11/22 01:17:05;;;;;;;2.75;1.90;;;;;;;8.39;59.99;99126.41;3145629;28;20099;-77
2022/11/22 01:18:36;;;;;;;3.13;2.00;;;;;;;8.38;60.00;99124.69;3145681;28;20109;-75
2022/11/22 01:20:09;;;;;;;2.92;2.03;;;;;;;8.38;60.10;99125.56;3145871;28;20422;-74
2022/11/22 01:21:41;;;;;;;3.25;1.90;;;;;;;8.35;60.33;99127.44;3146244;28;20097;-75
2022/11/22 01:23:12;;;;;;;3.80;2.22;;;;;;;8.34;60.44;99129.19;3142495;28;20560;-75
2022/11/22 01:24:44;;;;;;;3.03;2.00;;;;;;;8.33;60.55;99126.66;3145483;28;20049;-75
2022/11/22 01:26:15;;;;;;;3.22;2.08;;;;;;;8.31;60.23;99134.53;3145787;28;20498;-76
2022/11/22 01:27:49;;;;;;;2.92;2.17;;;;;;;8.28;60.30;99141.59;3146050;28;20055;-76
2022/11/22 01:29:21;;;;;;;2.97;1.92;;;;;;;8.12;60.53;99118.13;3145672;28;20122;-75
2022/11/22 01:30:55;;;;;;;4.97;2.88;;;;;;;8.19;60.32;99133.34;3145815;28;20048;-75
2022/11/22 01:32:27;;;;;;;2.67;1.92;;;;;;;8.18;60.38;99130.81;3145484;28;20051;-75
2022/11/22 01:33:59;;;;;;;2.60;1.77;;;;;;;8.18;60.37;99126.44;3145983;28;20048;-75
2022/11/22 01:35:31;;;;;;;3.22;2.17;;;;;;;8.17;60.50;99129.13;3146118;28;20044;-76
2022/11/22 01:37:03;;;;;;;3.72;1.92;;;;;;;8.16;60.33;99132.63;3145637;28;20053;-74
2022/11/22 01:38:34;;;;;;;2.83;1.95;;;;;;;8.15;60.25;99131.78;3145676;28;20059;-75
2022/11/22 01:40:08;;;;;;;3.00;2.10;;;;;;;8.15;60.58;99129.19;3144924;28;20044;-74
2022/11/22 01:41:40;;;;;;;3.20;2.13;;;;;;;8.13;60.42;99128.44;3145883;28;20102;-75
2022/11/22 01:43:17;;;;;;;3.78;2.08;;;;;;;8.13;60.54;99127.56;3145904;28;20584;-75
2022/11/22 01:44:50;;;;;;;2.53;1.98;;;;;;;8.08;60.52;99132.16;3145958;28;20131;-74
2022/11/22 01:46:33;;;;;;;2.90;2.17;;;;;;;8.07;60.55;99138.22;3145604;28;20059;-76
2022/11/22 01:48:13;;;;;;;2.55;1.83;;;;;;;8.01;60.71;99126.38;3145685;28;20044;-75
2022/11/22 01:49:50;;;;;;;3.80;2.33;;;;;;;8.02;60.84;99133.28;3145220;28;20048;-77
2022/11/22 01:51:26;;;;;;;3.10;2.10;;;;;;;7.86;60.86;99111.53;3145304;28;20051;-76
2022/11/22 01:53:02;;;;;;;3.08;2.00;;;;;;;8.00;61.00;99131.66;3145257;28;20057;-76
2022/11/22 01:54:40;;;;;;;2.70;1.85;;;;;;;8.00;61.13;99134.25;3145736;28;20545;-76
2022/11/22 01:56:15;;;;;;;4.53;2.40;;;;;;;7.97;61.12;99132.63;3145414;28;20048;-76
2022/11/22 01:57:48;;;;;;;4.32;2.05;;;;;;;7.92;60.95;99127.63;3145780;28;20079;-76
2022/11/22 01:59:24;;;;;;;3.43;2.07;;;;;;;7.92;61.17;99134.56;3145601;28;20135;-76
2022/11/22 02:00:55;;;;;;;3.30;2.05;;;;;;;7.91;61.26;99130.31;3145476;28;20401;-76
2022/11/22 02:02:29;;;;;;;3.17;1.77;;;;;;;7.89;61.20;99127.78;3145578;28;20045;-76
2022/11/22 02:04:03;;;;;;;3.00;1.83;;;;;;;7.87;61.32;99131.38;3145575;28;20725;-76
2022/11/22 02:05:34;;;;;;;2.72;1.85;;;;;;;7.86;61.08;99133.09;3145702;28;20527;-76
2022/11/22 02:07:13;;;;;;;2.85;1.70;;;;;;;7.87;61.25;99131.38;3145274;28;20430;-76
2022/11/22 02:08:52;;;;;;;3.03;2.13;;;;;;;7.84;61.28;99134.94;3145456;28;20045;-76
2022/11/22 02:10:27;;;;;;;3.75;2.10;;;;;;;7.78;61.15;99126.56;3145479;28;20075;-76
2022/11/22 02:12:02;;;;;;;2.63;1.90;;;;;;;7.83;61.19;99143.59;3142643;28;20154;-75
2022/11/22 02:13:39;;;;;;;2.60;1.70;;;;;;;7.59;61.25;99105.81;3136159;28;20513;-75
2022/11/22 02:15:11;;;;;;;3.17;1.70;;;;;;;7.76;61.43;99137.03;3145393;28;20048;-75
2022/11/22 02:16:45;;;;;;;2.33;1.80;;;;;;;7.53;61.51;99104.34;3145285;28;20121;-76
2022/11/22 02:18:19;;;;;;;3.20;2.00;;;;;;;7.47;61.43;99099.44;3145476;28;20321;-75
2022/11/22 02:19:51;;;;;;;4.15;2.10;;;;;;;7.70;61.43;99138.13;3145560;28;20048;-77
2022/11/22 02:21:23;;;;;;;3.35;1.85;;;;;;;7.66;61.48;99133.13;3145319;28;20122;-76
2022/11/22 02:23:02;;;;;;;2.92;1.88;;;;;;;7.67;61.51;99137.44;3145271;28;20055;-75
2022/11/22 02:24:41;;;;;;;3.90;2.13;;;;;;;7.68;61.39;99139.09;3145363;28;20056;-77
2022/11/22 02:26:15;;;;;;;2.95;2.10;;;;;;;7.63;61.83;99136.72;3145152;28;20515;-76
2022/11/22 02:27:48;;;;;;;3.17;2.00;;;;;;;7.68;61.61;99150.31;3144334;28;20049;-74
2022/11/22 02:29:20;;;;;;;3.03;2.15;;;;;;;7.69;61.62;99151.13;3145327;28;20049;-74
2022/11/22 02:30:52;;;;;;;3.55;2.45;;;;;;;7.67;61.78;99159.00;3145160;28;20044;-74
2022/11/22 02:32:24;;;;;;;4.68;2.15;;;;;;;7.67;61.75;99158.16;3144930;28;20044;-74
2022/11/22 02:33:55;;;;;;;4.07;2.17;;;;;;;7.63;61.70;99160.06;3145344;28;20057;-74
2022/11/22 02:35:28;;;;;;;3.85;2.00;;;;;;;7.25;61.66;99102.13;3144970;28;20059;-75
2022/11/22 02:37:00;;;;;;;;;;;;;;;7.53;62.14;99163.94;3145424;28;20429;-75
2022/11/22 02:38:34;;;;;;;5.03;2.05;;;;;;;7.44;62.06;99144.44;3144956;28;19925;-75
2022/11/22 02:40:09;;;;;;;3.28;1.95;;;;;;;7.53;61.93;99154.41;3144836;28;20419;-75
2022/11/22 02:41:43;;;;;;;3.20;2.10;;;;;;;7.56;61.91;99155.19;3145208;28;20438;-75
2022/11/22 02:43:17;;;;;;;4.05;2.30;;;;;;;7.55;61.84;99159.53;3145115;28;20104;-75
2022/11/22 02:44:49;;;;;;;2.58;2.05;;;;;;;7.55;62.20;99156.09;3144868;28;20056;-75
2022/11/22 02:46:21;;;;;;;4.05;2.28;;;;;;;7.45;61.81;99140.97;3144299;28;20373;-75
2022/11/22 02:47:53;;;;;;;3.70;2.45;;;;;;;7.54;62.15;99155.25;3145389;28;20110;-75
2022/11/22 02:49:26;;;;;;;3.58;2.35;;;;;;;7.48;62.21;99153.78;3144813;28;20045;-76
2022/11/22 02:50:57;;;;;;;3.33;2.40;;;;;;;7.48;62.25;99153.78;3144959;28;20438;-75
2022/11/22 02:52:28;;;;;;;3.15;2.15;;;;;;;7.46;62.12;99160.75;3144753;28;20049;-75
2022/11/22 02:54:00;;;;;;;3.33;2.13;;;;;;;7.48;62.30;99163.28;3144659;28;20056;-75
2022/11/22 02:55:32;;;;;;;4.25;2.33;;;;;;;7.46;62.41;99160.75;3145049;28;20490;-75
2022/11/22 02:57:06;;;;;;;4.38;2.60;;;;;;;7.40;62.35;99152.41;3144399;28;20041;-74
2022/11/22 02:58:38;;;;;;;3.75;2.40;;;;;;;7.48;62.45;99163.28;3144364;28;20052;-74
2022/11/22 03:00:11;;;;;;;3.10;2.05;;;;;;;7.49;62.46;99164.97;3144971;28;20090;-74
2022/11/22 03:01:42;;;;;;;;;;;;;;;7.40;62.53;99171.38;3144842;28;20548;-74
2022/11/22 03:03:14;;;;;;;3.08;2.08;;;;;;;7.37;62.77;99168.94;3144680;28;20029;-74
2022/11/22 03:04:46;;;;;;;3.78;2.50;;;;;;;7.41;63.03;99177.41;3144183;28;20326;-75
2022/11/22 03:06:17;;;;;;;3.15;2.28;;;;;;;7.39;63.02;99164.50;3144813;28;20686;-75
2022/11/22 03:07:50;;;;;;;5.05;2.17;;;;;;;7.34;62.65;99165.63;3144877;28;20046;-74
2022/11/22 03:09:22;;;;;;;3.38;2.13;;;;;;;7.41;62.79;99174.81;3144589;28;20052;-74
2022/11/22 03:10:56;;;;;;;3.40;2.38;;;;;;;7.37;62.98;99176.69;3144723;28;20407;-76
2022/11/22 03:12:29;;;;;;;3.72;2.20;;;;;;;7.33;62.87;99169.94;3144354;28;20067;-75
2022/11/22 03:14:01;;;;;;;4.47;2.65;;;;;;;7.32;63.07;99168.28;3144560;28;20586;-75
2022/11/22 03:15:33;;;;;;;3.70;2.40;;;;;;;7.30;63.23;99170.06;3144853;28;20052;-74
2022/11/22 03:17:05;;;;;;;3.95;2.70;;;;;;;7.29;63.57;99171.81;3144006;28;20129;-75
2022/11/22 03:18:37;;;;;;;3.90;2.90;;;;;;;7.28;63.61;99177.09;3144343;28;20142;-74
2022/11/22 03:20:10;;;;;;;4.22;2.60;;;;;;;7.26;63.51;99160.75;3144481;28;20059;-75
2022/11/22 03:21:42;;;;;;;3.38;2.40;;;;;;;7.20;63.81;99171.38;3144425;28;20044;-76
2022/11/22 03:23:14;;;;;;;3.80;2.40;;;;;;;7.18;64.07;99170.59;3144602;28;20602;-76
2022/11/22 03:24:46;;;;;;;3.83;2.47;;;;;;;7.19;63.90;99169.72;3144575;28;20051;-76
2022/11/22 03:26:17;;;;;;;4.90;3.10;;;;;;;7.18;63.90;99168.00;3144194;28;20089;-75
2022/11/22 03:27:51;;;;;;;3.75;2.45;;;;;;;7.18;63.77;99168.00;3144746;28;20106;-77
2022/11/22 03:29:23;;;;;;;3.70;2.90;;;;;;;7.16;63.93;99167.22;3144660;28;20048;-76
2022/11/22 03:30:53;;;;;;;5.05;2.53;;;;;;;7.04;63.66;99147.88;3143964;28;20456;-76
2022/11/22 03:32:25;;;;;;;4.35;2.72;;;;;;;7.12;63.87;99165.66;3144220;28;20044;-76
2022/11/22 03:33:56;;;;;;;4.65;2.65;;;;;;;7.11;63.92;99167.41;3144263;28;20044;-76
2022/11/22 03:35:28;;;;;;;4.15;2.70;;;;;;;7.06;63.90;99162.41;3144578;28;20475;-75
2022/11/22 03:37:00;;;;;;;5.35;2.72;;;;;;;7.07;64.20;99176.22;3144507;28;20413;-74
2022/11/22 03:38:34;;;;;;;3.30;2.63;;;;;;;7.02;64.18;99173.81;3143708;28;20053;-74
2022/11/22 03:40:06;;;;;;;;;;;;;;;6.94;64.27;99175.88;3144632;28;20074;-74
2022/11/22 03:41:38;;;;;;;3.78;2.70;;;;;;;6.93;64.39;99175.94;3144108;28;19920;-74
2022/11/22 03:43:11;;;;;;;5.40;2.80;;;;;;;6.96;64.37;99178.41;3143613;28;20080;-74
2022/11/22 03:44:43;;;;;;;5.32;2.88;;;;;;;6.96;64.38;99175.81;3144280;28;20044;-74
2022/11/22 03:46:16;;;;;;;6.32;2.70;;;;;;;6.99;64.20;99183.44;3143964;28;20067;-74
2022/11/22 03:47:48;;;;;;;3.85;2.63;;;;;;;6.98;64.53;99189.53;3139120;28;20129;-74
2022/11/22 03:49:20;;;;;;;4.80;3.00;;;;;;;6.97;64.39;99182.66;3135535;28;20048;-73
2022/11/22 03:50:52;;;;;;;5.22;2.70;;;;;;;6.97;64.63;99188.69;3135441;28;20087;-73
2022/11/22 03:52:25;;;;;;;6.40;2.95;;;;;;;6.97;64.52;99180.06;3134728;28;20048;-73
2022/11/22 03:53:58;;;;;;;5.55;2.90;;;;;;;6.97;64.59;99185.25;3135775;28;20048;-73
2022/11/22 03:55:29;;;;;;;5.30;3.60;;;;;;;6.94;64.68;99181.03;3135073;28;20060;-75
2022/11/22 03:57:01;;;;;;;5.10;3.10;;;;;;;6.95;64.41;99185.34;3133874;28;20200;-74
2022/11/22 03:58:34;;;;;;;6.30;3.33;;;;;;;6.90;64.62;99173.47;3134237;28;20516;-74
2022/11/22 04:00:08;;;;;;;4.18;2.90;;;;;;;6.93;64.50;99175.94;3135492;28;20148;-75
2022/11/22 04:01:40;;;;;;;4.65;2.60;;;;;;;6.96;64.42;99186.16;3135788;28;20077;-75
2022/11/22 04:03:12;;;;;;;7.53;3.13;;;;;;;6.95;64.16;99193.09;3134191;28;20131;-74
2022/11/22 04:04:44;;;;;;;5.43;3.30;;;;;;;6.93;64.58;99191.47;3134455;28;20058;-74
2022/11/22 04:06:16;;;;;;;5.35;3.05;;;;;;;6.91;64.51;99191.50;3135171;28;20487;-75
2022/11/22 04:07:54;;;;;;;5.25;3.10;;;;;;;6.86;64.88;99185.66;3135480;28;20501;-75
2022/11/22 04:09:26;;;;;;;5.53;3.28;;;;;;;6.83;64.71;99184.06;3130495;28;20147;-75
2022/11/22 04:10:58;;;;;;;8.38;3.70;;;;;;;6.81;65.07;99192.81;3132314;28;20644;-75
2022/11/22 04:12:31;;;;;;;7.20;3.50;;;;;;;6.80;65.05;99191.97;3135112;28;20052;-75
2022/11/22 04:15:55;;;;;;;6.95;3.63;;;;;;;6.78;65.05;99198.94;3134681;28;20052;-75
2022/11/22 04:17:44;;;;;;;7.90;3.55;;;;;;;6.77;65.37;99198.97;3134249;28;20109;-75
2022/11/22 04:19:16;;;;;;;7.93;3.97;;;;;;;6.56;65.44;99167.84;3134008;28;20071;-75
2022/11/22 04:22:38;;;;;;;11.77;4.45;;;;;;;6.74;65.43;99187.00;3129836;28;20048;-75
2022/11/22 04:26:01;;;;;;;4.93;3.03;;;;;;;6.78;65.57;99204.09;3134706;28;20048;-74
2022/11/22 04:27:32;;;;;;;5.50;3.15;;;;;;;6.79;65.82;99192.00;3134238;28;20052;-75
2022/11/22 04:29:06;;;;;;;5.03;3.03;;;;;;;6.83;65.88;99196.16;3134525;28;20048;-75
2022/11/22 04:34:19;;;;;;;5.07;2.45;;;;;;;6.81;65.71;99197.97;3128449;28;20052;-73
2022/11/22 04:35:52;;;;;;;4.05;2.70;;;;;;;6.80;65.92;99185.91;3134283;28;20498;-73
2022/11/22 04:37:24;;;;;;;4.18;2.53;;;;;;;6.82;65.90;99194.47;3134617;28;20549;-73
2022/11/22 04:38:56;;;;;;;4.32;2.55;;;;;;;6.85;65.71;99199.53;3133799;28;20542;-73
2022/11/22 04:40:28;;;;;;;4.95;3.03;;;;;;;6.84;65.60;99195.25;3134381;28;20086;-74
2022/11/22 04:45:41;;;;;;;3.75;2.67;;;;;;;6.84;65.83;99210.78;3134295;28;20546;-72
2022/11/22 04:47:57;;;;;;;5.72;2.83;;;;;;;6.82;65.81;99213.44;3134187;28;20059;-72
2022/11/22 04:49:09;;;;;;;4.28;2.65;;;;;;;6.77;66.18;99215.38;3134251;28;20134;-72
2022/11/22 04:54:21;;;;;;;4.20;2.90;;;;;;;6.74;66.29;99223.22;3125361;28;20049;-74
2022/11/22 04:55:54;;;;;;;5.63;2.55;;;;;;;6.72;66.39;99217.28;3136757;28;20072;-73
2022/11/22 04:57:26;;;;;;;5.10;2.65;;;;;;;6.72;66.47;99213.88;3137308;28;20503;-74
2022/11/22 04:58:58;;;;;;;3.45;2.47;;;;;;;6.52;66.45;99187.00;3137454;28;20155;-74
2022/11/22 05:00:30;;;;;;;5.75;2.75;;;;;;;6.72;66.47;99224.22;3136980;28;20121;-74
2022/11/22 05:02:03;;;;;;;3.95;2.60;;;;;;;6.76;66.27;99230.94;3136149;28;20044;-75
2022/11/22 05:03:35;;;;;;;;;;;;;;;6.68;66.44;99244.16;3136973;28;20060;-73
2022/11/22 05:05:07;;;;;;;6.43;3.00;;;;;;;6.66;66.56;99243.41;3137047;28;20507;-73
2022/11/22 05:06:39;;;;;;;4.40;2.58;;;;;;;6.70;66.45;99246.72;3136121;28;20084;-74
2022/11/22 05:08:12;;;;;;;4.35;2.67;;;;;;;6.48;66.64;99213.91;3136490;28;20529;-74
2022/11/22 05:09:44;;;;;;;5.53;2.90;;;;;;;6.73;66.55;99254.34;3137157;28;20495;-74
2022/11/22 05:11:17;;;;;;;3.70;2.42;;;;;;;6.74;66.68;99262.03;3136518;28;20135;-74
2022/11/22 05:12:48;;;;;;;6.60;2.50;;;;;;;6.75;66.33;99266.34;3137524;28;20512;-74
2022/11/22 05:14:20;;;;;;;5.18;2.28;;;;;;;6.74;66.50;99258.63;3136553;28;20134;-74
2022/11/22 05:15:51;;;;;;;5.57;2.42;;;;;;;6.77;66.27;99276.63;3137039;28;20105;-75
2022/11/22 05:17:25;;;;;;;5.18;2.35;;;;;;;6.77;66.36;99274.03;3137506;28;20522;-74
2022/11/22 05:18:59;;;;;;;6.20;2.80;;;;;;;6.79;66.25;99272.22;3137264;28;20478;-74
2022/11/22 05:20:31;;;;;;;4.88;2.97;;;;;;;6.77;66.29;99274.91;3136858;28;20763;-74
2022/11/22 05:22:03;;;;;;;7.00;2.80;;;;;;;6.79;66.32;99277.41;3130587;28;20059;-77
2022/11/22 05:25:23;;;;;;;5.43;2.60;;;;;;;6.79;66.33;99282.59;3137005;28;20048;-75
2022/11/22 05:26:55;;;;;;;4.70;2.72;;;;;;;6.80;66.21;99289.44;3135948;28;20880;-73
2022/11/22 05:28:28;;;;;;;6.85;2.75;;;;;;;6.80;66.35;99289.44;3135646;28;20052;-77
2022/11/22 05:30:00;;;;;;;3.53;2.50;;;;;;;6.82;66.19;99291.06;3136953;28;20048;-75
2022/11/22 05:31:33;;;;;;;5.78;3.03;;;;;;;6.84;65.92;99291.88;3137469;28;20106;-73
2022/11/22 05:33:07;;;;;;;6.43;3.13;;;;;;;6.81;65.96;99291.13;3137328;28;20518;-68
2022/11/22 05:34:39;;;;;;;7.47;3.10;;;;;;;6.80;66.02;99289.44;3132346;28;20057;-70
2022/11/22 05:36:13;;;;;;;7.30;2.92;;;;;;;6.86;65.95;99302.13;3135282;28;20121;-70
2022/11/22 05:37:45;;;;;;;5.40;3.45;;;;;;;6.81;66.14;99291.97;3136842;28;20055;-68
2022/11/22 05:39:17;;;;;;;4.88;3.30;;;;;;;6.89;65.81;99301.19;3136630;28;20650;-70
2022/11/22 05:40:49;;;;;;;6.68;3.50;;;;;;;6.87;65.83;99301.25;3143410;28;20055;-69
2022/11/22 05:42:21;;;;;;;5.03;3.40;;;;;;;6.92;65.77;99308.84;3145871;28;20477;-69
2022/11/22 05:43:54;;;;;;;14.30;7.25;;;;;;;6.96;65.86;99313.00;3137197;28;20049;-75
2022/11/22 05:45:26;;;;;;;12.88;7.28;;;;;;;6.94;65.83;99310.47;3133166;28;20045;-72
2022/11/22 05:46:58;;;;;;;11.60;6.07;;;;;;;7.01;65.93;99324.00;3137359;28;20044;-67
2022/11/22 05:48:31;;;;;;;5.25;3.55;;;;;;;7.06;65.81;99322.94;3145671;28;20048;-70
2022/11/22 05:50:04;;;;;;;8.02;3.60;;;;;;;7.20;65.67;99325.00;3145723;28;20080;-67
2022/11/22 05:51:36;;;;;;;7.00;3.15;;;;;;;7.40;65.10;99320.78;3145928;28;20056;-68
2022/11/22 05:53:08;;;;;;;7.05;3.28;;;;;;;7.58;65.22;99319.22;3145530;28;20048;-65
2022/11/22 05:54:40;;;;;;;17.98;5.18;;;;;;;7.81;64.60;99313.06;3145846;28;20052;-71
2022/11/22 05:56:13;;;;;;;6.35;3.47;;;;;;;7.99;64.15;99312.31;3145449;28;20048;-69
2022/11/22 05:57:44;;;;;;;5.22;2.90;;;;;;;8.14;63.77;99305.63;3145052;28;20048;-71
2022/11/22 05:59:16;;;;;;;7.30;3.22;;;;;;;8.38;63.38;99320.16;3145825;28;20527;-72
2022/11/22 06:00:47;;;;;;;5.95;3.10;;;;;;;8.57;62.85;99312.38;3145550;28;20048;-73
2022/11/22 06:02:19;;;;;;;5.28;3.50;;;;;;;8.74;62.49;99305.59;3144674;28;20056;-73
2022/11/22 06:03:53;;;;;;;6.60;3.38;;;;;;;8.93;62.03;99319.41;3145962;28;20049;-77
2022/11/22 06:05:25;;;;;;;5.25;3.70;;;;;;;9.08;61.14;99310.06;3145660;28;20044;-73
2022/11/22 06:06:57;;;;;;;7.85;3.75;;;;;;;9.25;60.98;99309.28;3145287;28;20429;-71
2022/11/22 06:08:28;;;;;;;8.98;3.83;;;;;;;9.41;60.81;99314.59;3143253;28;20052;-70
2022/11/22 06:10:00;;;;;;;6.55;3.67;;;;;;;9.59;60.14;99318.91;3145595;28;20044;-71
2022/11/22 06:11:32;;;;;;;8.80;4.43;;;;;;;9.73;59.73;99324.28;3143485;28;20056;-74
2022/11/22 06:13:04;;;;;;;8.15;3.22;;;;;;;9.82;58.98;99319.50;3131697;28;20391;-72
2022/11/22 06:14:36;;;;;;;6.55;3.35;;;;;;;9.95;58.45;99320.59;3144040;28;20087;-74
2022/11/22 06:16:09;;;;;;;6.72;3.65;;;;;;;10.08;58.02;99321.66;3144280;28;20056;-75
2022/11/22 06:17:42;;;;;;;8.27;3.30;;;;;;;10.18;57.80;99319.44;3144820;28;20048;-73
2022/11/22 06:19:15;;;;;;;4.80;3.22;;;;;;;10.23;57.04;99315.69;3144557;28;20110;-72
2022/11/22 06:20:47;;;;;;;9.25;3.42;;;;;;;10.27;56.90;99316.41;3143620;28;20814;-74
2022/11/22 06:22:19;;;;;;;4.95;3.30;;;;;;;10.35;56.65;99329.00;3145028;28;20156;-73
2022/11/22 06:23:52;;;;;;;6.93;2.97;;;;;;;10.39;56.55;99326.16;3145482;28;20048;-74
2022/11/22 06:25:24;;;;;;;6.25;2.53;;;;;;;10.44;56.08;99324.19;3145041;28;20049;-71
2022/11/22 06:26:56;;;;;;;12.10;2.70;;;;;;;10.50;55.81;99311.75;3145004;28;20110;-74
2022/11/22 06:28:30;;;;;;;5.15;3.38;;;;;;;10.69;55.58;99312.47;3145269;28;20048;-71
2022/11/22 06:30:02;;;;;;;4.38;2.67;;;;;;;10.90;55.28;99316.50;3144646;28;20059;-71
2022/11/22 06:31:34;;;;;;;5.43;3.13;;;;;;;11.16;54.84;99307.28;3144084;28;20069;-70
2022/11/22 06:33:05;;;;;;;8.48;3.75;;;;;;;11.39;53.95;99292.13;3144281;28;20048;-69
2022/11/22 06:34:39;;;;;;;10.38;4.50;;;;;;;11.69;53.28;99301.72;3143537;28;20052;-69
2022/11/22 06:36:12;;;;;;;8.40;3.90;;;;;;;12.08;52.43;99314.25;3144987;28;20052;-68
2022/11/22 06:37:44;;;;;;;8.65;4.10;;;;;;;12.33;51.86;99299.72;3145320;28;20053;-70
2022/11/22 06:39:15;;;;;;;15.52;7.90;;;;;;;12.57;50.66;99319.13;3145413;28;20052;-70
2022/11/22 06:40:47;;;;;;;17.42;7.32;;;;;;;12.67;49.79;99329.84;3145710;28;20437;-71
2022/11/22 06:42:19;;;;;;;5.47;3.42;;;;;;;12.63;49.15;99342.28;3140450;28;20045;-69
2022/11/22 06:43:52;;;;;;;14.75;7.20;;;;;;;12.71;49.58;99344.41;3135680;28;20114;-73
2022/11/22 06:45:24;;;;;;;9.13;3.25;;;;;;;12.94;49.44;99359.50;3145625;28;20056;-73
2022/11/22 06:46:56;;;;;;;8.07;2.67;;;;;;;13.22;48.90;99357.75;3145386;28;20049;-64
2022/11/22 06:48:30;;;;;;;8.27;2.72;;;;;;;13.50;48.30;99356.06;3144933;28;20056;-67
2022/11/22 06:50:04;;;;;;;6.13;2.80;;;;;;;13.77;47.67;99356.88;3145096;28;20040;-71
2022/11/22 06:51:35;;;;;;;4.45;2.42;;;;;;;14.15;47.08;99363.97;3145577;28;20049;-70
2022/11/22 06:53:08;;;;;;;3.83;2.17;;;;;;;14.39;45.98;99344.94;3144981;28;20135;-72
2022/11/22 06:54:40;;;;;;;6.43;2.85;;;;;;;14.72;45.73;99347.03;3145362;28;20053;-75
2022/11/22 06:56:14;;;;;;;3.70;2.30;;;;;;;15.08;45.28;99338.38;3145148;28;20098;-68
2022/11/22 06:57:50;;;;;;;4.03;2.70;;;;;;;15.62;45.02;99337.97;3141343;28;20048;-72
2022/11/22 06:59:22;;;;;;;5.43;2.80;;;;;;;16.10;44.27;99335.31;3143728;28;20414;-73
2022/11/22 07:00:58;;;;;;;3.20;1.90;;;;;;;16.50;43.48;99344.56;3142607;28;20539;-71
2022/11/22 07:02:30;;;;;;;6.57;4.05;;;;;;;16.69;42.24;99355.34;3143669;28;20060;-74
2022/11/22 07:04:03;;;;;;;49.40;24.92;;;;;;;16.72;41.48;99364.78;3136710;28;20152;-72
2022/11/22 07:05:36;;;;;;;19.48;11.98;;;;;;;16.76;41.68;99361.81;3136133;28;20061;-74
2022/11/22 07:07:08;;;;;;;8.38;5.43;;;;;;;16.98;41.63;99357.53;3140832;28;20106;-75
2022/11/22 07:08:40;;;;;;;4.90;2.88;;;;;;;17.43;41.51;99357.44;3143418;28;20053;-74
2022/11/22 07:10:12;;;;;;;5.28;2.15;;;;;;;17.87;40.87;99353.03;3141315;28;20044;-67
2022/11/22 07:11:44;;;;;;;6.57;2.60;;;;;;;18.30;40.55;99354.69;3142697;28;20059;-69
2022/11/22 07:13:16;;;;;;;8.25;2.83;;;;;;;18.77;39.60;99355.94;3144841;28;20052;-70
2022/11/22 07:14:48;;;;;;;7.95;2.85;;;;;;;19.03;39.17;99348.41;3143980;28;20053;-71
2022/11/22 07:16:21;;;;;;;6.30;2.75;;;;;;;19.44;38.37;99366.84;3145161;28;20508;-72
2022/11/22 07:17:53;;;;;;;;;;;;;;;19.80;38.85;99357.47;3145519;28;20109;-72
2022/11/22 07:19:25;;;;;;;6.53;2.80;;;;;;;19.81;37.20;99360.94;3144904;28;19924;-70
2022/11/22 07:21:02;;;;;;;3.03;1.85;;;;;;;19.39;36.31;99329.44;3144675;28;20124;-70
2022/11/22 07:22:34;;;;;;;3.28;1.92;;;;;;;19.62;36.30;99359.91;3144764;28;20173;-70
2022/11/22 07:24:07;;;;;;;4.97;2.00;;;;;;;19.67;35.97;99360.38;3144784;28;20052;-74
2022/11/22 07:25:39;;;;;;;5.78;2.47;;;;;;;19.88;36.33;99359.41;3136625;28;20174;-71
2022/11/22 07:27:11;;;;;;;7.15;2.20;;;;;;;20.17;36.05;99357.59;3139065;28;20056;-69
2022/11/22 07:28:43;;;;;;;6.80;2.58;;;;;;;20.37;35.43;99347.78;3144703;28;20105;-67
2022/11/22 07:30:16;;;;;;;5.55;2.22;;;;;;;20.64;35.66;99351.50;3144447;28;20054;-68
2022/11/22 07:31:48;;;;;;;4.78;2.40;;;;;;;20.98;35.42;99349.13;3144762;28;20149;-68
2022/11/22 07:33:18;;;;;;;5.82;2.42;;;;;;;21.32;34.91;99352.00;3144781;28;20036;-73
2022/11/22 07:34:50;;;;;;;4.65;2.42;;;;;;;21.78;34.57;99346.69;3144483;28;20063;-68
2022/11/22 07:36:24;;;;;;;5.70;2.92;;;;;;;21.87;33.90;99303.38;3144734;28;20056;-69
2022/11/22 07:37:56;;;;;;;6.00;2.53;;;;;;;22.40;33.04;99346.69;3144453;28;20048;-69
2022/11/22 07:39:28;;;;;;;4.93;2.25;;;;;;;22.64;32.96;99348.66;3144844;28;20056;-69